Kure, Japan

3:33 AM JST on 五月 01, 2017 (GMT +0900)
Miyajima Highway | | Change Station

高度 9 ft 34.39 °N, 132.42 °E | Updated 15 minutes ago

晴
66.0 °F
体感気温 66.0 °F
3.1
風 変数 風 から 南西
Gusts 5.6 Mph

今日
高い -- | 低 -- °F
--% 降水確率
昨日
高い -- | 低 -- °F
Precip. -- インチ
気圧 29.91 インチ
視程 6.2 マイル

露点温度 51 °F
湿度 58%
降水 0.00 インチ
積雪深 利用不可。
5:20 AM 6:53 PM
三日月, 25% visible
METAR RJOI 301755Z 16007KT 9999 SKC 19/08 A2991 RMK SLP126 T01890078 10211 20183 54000
気圧 29.91 インチ
視程 6.2 マイル

露点温度 51 °F
湿度 58%
降水 0.00 インチ
積雪深 利用不可。
5:20 AM 6:53 PM
三日月, 25% visible
METAR RJOI 301755Z 16007KT 9999 SKC 19/08 A2991 RMK SLP126 T01890078 10211 20183 54000

Get Severe Weather Alerts

Thanks for signing up!

Be on the lookout for a verification email in your inbox.

You'll start receiving the daily forecast at 8 AM.

×

10-Day Weather Forecast

No radar image for this location.
×

Almanac

天文

May. 01, 2017 入り
実時間
常用薄明
航海薄明
天文薄明
可視光の長さ
可照時間
Tomorrow will be .
, % of the Moon is Illuminated

今日の極値

Country Highs Country Lows

Community

WunderBlog® & News

Nearby

空気品質

  空気品質 大気質指数 汚染物質
Not available.

積雪深

Station Depth 高度

地震活動

Distance Mag. Time & Date
Minimum magnitude displayed is 2.5.

沿岸の水温

地名 気温

Stations

最寄りの気象観測所

観測所位置 温度 体感気温(寒さ) 露点温度 湿度 Precip. 高度 更新日時 タイプする